Time;durP1;ratioP1;P1;durP2;ratioP2;P2;SDS_P1;SDS_P2;PMS_P1;PMS_P2;Temp;Humidity;BMP_temperature;BMP_pressure;BME280_temperature;BME280_humidity;BME280_pressure;Samples;Min_cycle;Max_cycle;Signal;HPM_P1;HPM_P2
2024/02/17 00:02:21;;;;;;;17.48;9.77;;;2.90;99.90;;;;;;4990482;28;19910;-78
2024/02/17 00:04:47;;;;;;;;;;;2.90;99.90;;;;;;5003000;28;20483;-79
2024/02/17 00:07:12;;;;;;;17.42;8.15;;;3.00;99.90;;;;;;4987113;28;19910;-79
2024/02/17 00:09:39;;;;;;;;;;;3.00;99.90;;;;;;5005802;28;20037;-78
2024/02/17 00:12:08;;;;;;;14.25;8.40;;;3.00;99.90;;;;;;5012314;28;19957;-78
2024/02/17 00:14:34;;;;;;;15.77;7.55;;;3.00;99.90;;;;;;4992704;28;20146;-79
2024/02/17 00:17:03;;;;;;;;;;;3.00;99.90;;;;;;5009496;28;20296;-78
2024/02/17 00:19:29;;;;;;;12.18;6.15;;;3.00;99.90;;;;;;5014508;28;19940;-79
2024/02/17 00:21:55;;;;;;;16.48;8.10;;;3.00;99.90;;;;;;4994340;28;20050;-78
2024/02/17 00:24:21;;;;;;;;;;;3.00;99.90;;;;;;4983739;28;20410;-78
2024/02/17 00:26:48;;;;;;;12.02;6.68;;;2.90;99.90;;;;;;5002479;28;19917;-78
2024/02/17 00:29:15;;;;;;;12.02;7.03;;;3.00;99.90;;;;;;5000080;28;20030;-77
2024/02/17 00:31:41;;;;;;;13.80;7.57;;;3.00;99.90;;;;;;5002512;28;20112;-79
2024/02/17 00:34:06;;;;;;;;;;;3.00;99.90;;;;;;4983497;28;20042;-79
2024/02/17 00:36:32;;;;;;;13.48;7.50;;;2.90;99.90;;;;;;4983194;28;20310;-79
2024/02/17 00:38:58;;;;;;;;;;;2.90;99.90;;;;;;5000674;28;20030;-77
2024/02/17 00:41:24;;;;;;;15.10;8.13;;;2.90;99.90;;;;;;5004649;28;19913;-78
2024/02/17 00:43:50;;;;;;;15.07;8.27;;;2.90;99.90;;;;;;4989703;28;20026;-79
2024/02/17 00:46:16;;;;;;;;;;;3.00;99.90;;;;;;4986001;28;20115;-78
2024/02/17 00:48:41;;;;;;;13.27;8.10;;;2.90;99.90;;;;;;4984221;28;19941;-78
2024/02/17 00:51:07;;;;;;;;;;;3.00;99.90;;;;;;5003566;28;20018;-78
2024/02/17 00:53:32;;;;;;;14.35;7.68;;;2.90;99.90;;;;;;5003165;28;19948;-78
2024/02/17 00:55:58;;;;;;;;;;;3.00;99.90;;;;;;4990201;28;20034;-78
2024/02/17 00:58:23;;;;;;;14.85;8.07;;;2.80;99.90;;;;;;4984496;28;19917;-78
2024/02/17 01:00:49;;;;;;;;;;;3.00;99.90;;;;;;4994604;28;20027;-78
2024/02/17 01:03:15;;;;;;;11.65;7.00;;;2.90;99.90;;;;;;4982670;28;19910;-78
2024/02/17 01:05:42;;;;;;;;;;;2.90;99.90;;;;;;4985317;28;20492;-78
2024/02/17 01:08:10;;;;;;;13.35;6.75;;;2.90;99.90;;;;;;4986324;28;19976;-79
2024/02/17 01:10:36;;;;;;;15.15;7.43;;;3.00;99.90;;;;;;4985627;28;20027;-77
2024/02/17 01:13:02;;;;;;;;;;;2.90;99.90;;;;;;4988010;28;20538;-79
2024/02/17 01:15:28;;;;;;;16.92;7.13;;;2.90;99.90;;;;;;4988669;28;19988;-78
2024/02/17 01:17:53;;;;;;;;;;;2.90;99.90;;;;;;4989078;28;20026;-77
2024/02/17 01:20:19;;;;;;;10.88;6.78;;;2.90;99.90;;;;;;4987475;28;20323;-78
2024/02/17 01:22:45;;;;;;;;;;;2.80;99.90;;;;;;4988907;28;20083;-77
2024/02/17 01:25:10;;;;;;;12.95;6.95;;;2.80;99.90;;;;;;5001502;28;20385;-78
2024/02/17 01:27:36;;;;;;;;;;;2.80;99.90;;;;;;4983097;28;20059;-78
2024/02/17 01:30:01;;;;;;;10.18;6.32;;;2.70;99.90;;;;;;4999754;28;20383;-78
2024/02/17 01:32:27;;;;;;;;;;;2.80;99.90;;;;;;4989729;28;20037;-79
2024/02/17 01:34:53;;;;;;;12.55;6.97;;;2.80;99.90;;;;;;4985349;28;19914;-78
2024/02/17 01:37:18;;;;;;;;;;;2.80;99.90;;;;;;4983657;28;20492;-78
2024/02/17 01:39:44;;;;;;;12.68;6.38;;;2.90;99.90;;;;;;4980733;28;20430;-78
2024/02/17 01:42:10;;;;;;;;;;;2.90;99.90;;;;;;4980203;28;20019;-78
2024/02/17 01:44:36;;;;;;;13.82;6.40;;;2.80;99.90;;;;;;4980952;28;19914;-77
2024/02/17 01:47:02;;;;;;;;;;;3.00;99.90;;;;;;5000733;28;20035;-78
2024/02/17 01:49:29;;;;;;;11.10;5.22;;;3.00;99.90;;;;;;4983950;28;19945;-79
2024/02/17 01:51:58;;;;;;;16.10;6.88;;;3.10;99.90;;;;;;4984929;28;20037;-79
2024/02/17 01:54:24;;;;;;;10.40;6.07;;;3.10;99.90;;;;;;4983420;28;20031;-78
2024/02/17 01:56:50;;;;;;;12.85;6.35;;;3.10;99.90;;;;;;4998154;28;20035;-78
2024/02/17 01:59:16;;;;;;;11.95;6.60;;;3.20;99.90;;;;;;4980700;28;20085;-79
2024/02/17 02:01:46;;;;;;;12.85;6.10;;;3.10;99.90;;;;;;4982434;28;20031;-79
2024/02/17 02:04:11;;;;;;;10.77;6.18;;;3.10;99.90;;;;;;4999112;28;20121;-77
2024/02/17 02:06:38;;;;;;;;;;;3.00;99.90;;;;;;4983984;28;20077;-78
2024/02/17 02:09:03;;;;;;;10.05;6.30;;;3.00;99.90;;;;;;4984880;28;19910;-78
2024/02/17 02:11:29;;;;;;;;;;;3.10;99.90;;;;;;4998849;28;20059;-77
2024/02/17 02:14:17;;;;;;;10.32;5.47;;;3.00;99.90;;;;;;4981949;28;19965;-79
2024/02/17 02:16:43;;;;;;;13.25;7.07;;;2.90;99.90;;;;;;4982821;28;20027;-79
2024/02/17 02:19:10;;;;;;;13.02;6.90;;;2.90;99.90;;;;;;4984513;28;20023;-81
2024/02/17 02:21:37;;;;;;;12.55;6.45;;;2.90;99.90;;;;;;4985186;28;20035;-78
2024/02/17 02:24:03;;;;;;;13.38;6.95;;;3.00;99.90;;;;;;4999543;28;20023;-78
2024/02/17 02:26:30;;;;;;;11.10;6.38;;;3.00;99.90;;;;;;4984091;28;20027;-78
2024/02/17 02:28:57;;;;;;;9.90;5.88;;;3.00;99.90;;;;;;4982227;28;20026;-78
2024/02/17 02:31:22;;;;;;;15.85;6.63;;;2.90;99.90;;;;;;4982591;28;20098;-78
2024/02/17 02:33:48;;;;;;;;;;;2.90;99.90;;;;;;4984484;28;20061;-79
2024/02/17 02:36:14;;;;;;;13.73;7.22;;;2.90;99.90;;;;;;5000067;28;19910;-79
2024/02/17 02:38:40;;;;;;;;;;;2.90;99.90;;;;;;5005753;28;20019;-78
2024/02/17 02:41:06;;;;;;;14.55;6.70;;;2.80;99.90;;;;;;5004079;28;20813;-78
2024/02/17 02:43:31;;;;;;;12.55;7.32;;;2.80;99.90;;;;;;4983463;28;20113;-79
2024/02/17 02:45:57;;;;;;;;;;;2.80;99.90;;;;;;4999015;28;20081;-77
2024/02/17 02:48:22;;;;;;;19.05;9.93;;;2.80;99.90;;;;;;4998441;28;19910;-78
2024/02/17 02:50:48;;;;;;;;;;;2.90;99.90;;;;;;4983874;28;20027;-78
2024/02/17 02:53:14;;;;;;;23.60;11.90;;;2.70;99.90;;;;;;4982431;28;19906;-78
2024/02/17 02:55:40;;;;;;;;;;;2.70;99.90;;;;;;4983248;28;20042;-78
2024/02/17 02:58:05;;;;;;;14.10;8.30;;;2.60;99.90;;;;;;4992265;28;19937;-79
2024/02/17 03:00:31;;;;;;;;;;;2.70;99.90;;;;;;5000695;28;20045;-77
2024/02/17 03:02:57;;;;;;;13.60;7.32;;;2.60;99.90;;;;;;4981281;28;19968;-78
2024/02/17 03:05:23;;;;;;;;;;;2.60;99.90;;;;;;4983659;28;20019;-78
2024/02/17 03:07:48;;;;;;;14.50;8.00;;;2.50;99.90;;;;;;4983507;28;19950;-78
2024/02/17 03:10:17;;;;;;;17.13;7.13;;;2.50;99.90;;;;;;4986524;28;20074;-78
2024/02/17 03:12:43;;;;;;;18.33;8.65;;;2.40;99.90;;;;;;4987715;28;20046;-78
2024/02/17 03:15:09;;;;;;;;;;;2.40;99.90;;;;;;4988330;28;20035;-78
2024/02/17 03:17:38;;;;;;;13.13;6.80;;;2.40;99.90;;;;;;4985905;28;19936;-77
2024/02/17 03:20:04;;;;;;;13.52;7.32;;;2.40;99.90;;;;;;4988360;28;20030;-78
2024/02/17 03:22:33;;;;;;;12.27;7.47;;;2.40;99.90;;;;;;4985079;28;20031;-78
2024/02/17 03:24:59;;;;;;;12.48;7.40;;;2.40;99.90;;;;;;4971219;28;20419;-78
2024/02/17 03:27:25;;;;;;;;;;;2.40;99.90;;;;;;4992340;28;20031;-79
2024/02/17 03:29:51;;;;;;;19.10;9.60;;;2.40;99.90;;;;;;4996378;28;19910;-78
2024/02/17 03:32:18;;;;;;;;;;;2.40;99.90;;;;;;5005629;28;20265;-79
2024/02/17 03:34:43;;;;;;;21.08;12.40;;;2.30;99.90;;;;;;4988917;28;19914;-78
2024/02/17 03:37:09;;;;;;;;;;;2.30;99.90;;;;;;4995295;28;20094;-78
2024/02/17 03:39:35;;;;;;;29.15;16.55;;;2.30;99.90;;;;;;4989743;28;19914;-79
2024/02/17 03:42:01;;;;;;;;;;;2.30;99.90;;;;;;4990759;28;20050;-79
2024/02/17 03:44:27;;;;;;;23.48;11.00;;;2.40;99.90;;;;;;4994473;28;19913;-78
2024/02/17 03:46:52;;;;;;;;;;;2.30;99.90;;;;;;4993017;28;20034;-78
2024/02/17 03:49:21;;;;;;;19.08;10.27;;;2.30;99.90;;;;;;4992805;28;19910;-79
2024/02/17 03:51:48;;;;;;;16.48;9.75;;;2.30;99.90;;;;;;4980555;28;20034;-78
2024/02/17 03:54:14;;;;;;;19.38;8.98;;;2.30;99.90;;;;;;4985921;28;20078;-79
2024/02/17 03:56:39;;;;;;;;;;;2.20;99.90;;;;;;4987367;28;20034;-78
2024/02/17 03:59:05;;;;;;;21.90;12.43;;;2.30;99.90;;;;;;4985310;28;19933;-78
2024/02/17 04:01:36;;;;;;;;;;;2.20;99.90;;;;;;4987184;28;20027;-78
2024/02/17 04:04:04;;;;;;;20.35;11.52;;;2.20;99.90;;;;;;4985654;28;19921;-78
2024/02/17 04:06:31;;;;;;;20.63;10.27;;;2.10;99.90;;;;;;4984960;28;20054;-79
2024/02/17 04:08:57;;;;;;;17.75;9.82;;;2.10;99.90;;;;;;4985319;28;20027;-78
2024/02/17 04:11:24;;;;;;;16.50;9.32;;;2.20;99.90;;;;;;4984751;28;20031;-79
2024/02/17 04:13:50;;;;;;;17.33;8.32;;;2.20;99.90;;;;;;4982739;28;20046;-77
2024/02/17 04:16:15;;;;;;;;;;;2.10;99.90;;;;;;4988414;28;20032;-78
2024/02/17 04:18:41;;;;;;;14.23;8.25;;;2.30;99.90;;;;;;4990987;28;19914;-78
2024/02/17 04:21:06;;;;;;;;;;;2.20;99.90;;;;;;5008861;28;20031;-79
2024/02/17 04:23:33;;;;;;;14.52;8.50;;;2.20;99.90;;;;;;4991710;28;19908;-78
2024/02/17 04:26:01;;;;;;;13.68;8.95;;;2.20;99.90;;;;;;4988556;28;20035;-78
2024/02/17 04:28:27;;;;;;;14.07;8.10;;;2.20;99.90;;;;;;4986847;28;20546;-78
2024/02/17 04:30:52;;;;;;;;;;;2.20;99.90;;;;;;4987702;28;20034;-79
2024/02/17 04:33:18;;;;;;;14.52;7.57;;;2.10;99.90;;;;;;4985423;28;19909;-79
2024/02/17 04:35:44;;;;;;;;;;;2.10;99.90;;;;;;4985505;28;20033;-78
2024/02/17 04:38:09;;;;;;;16.48;8.60;;;2.10;99.90;;;;;;4982492;28;20375;-77
2024/02/17 04:40:35;;;;;;;;;;;2.00;99.90;;;;;;4983231;28;20082;-78
2024/02/17 04:43:01;;;;;;;17.33;10.20;;;2.00;99.90;;;;;;4997864;28;20465;-78
2024/02/17 04:45:26;;;;;;;;;;;2.00;99.90;;;;;;4984189;28;20078;-77
2024/02/17 04:47:52;;;;;;;14.63;6.97;;;2.00;99.90;;;;;;4984649;28;20328;-78
2024/02/17 04:50:18;;;;;;;;;;;2.00;99.90;;;;;;5001203;28;20033;-77
2024/02/17 04:52:43;;;;;;;17.02;9.32;;;1.90;99.90;;;;;;4983140;28;19910;-77
2024/02/17 04:55:09;;;;;;;;;;;1.90;99.90;;;;;;4986682;28;20038;-78
2024/02/17 04:57:35;;;;;;;25.90;9.63;;;1.90;99.90;;;;;;4984211;28;19925;-78
2024/02/17 05:00:02;;;;;;;13.85;8.68;;;1.90;99.90;;;;;;4984025;28;20522;-78
2024/02/17 05:02:27;;;;;;;16.02;8.82;;;1.90;99.90;;;;;;4985746;28;20027;-77
2024/02/17 05:04:56;;;;;;;;;;;1.90;99.90;;;;;;5001473;28;20023;-77
2024/02/17 05:07:22;;;;;;;17.08;8.80;;;1.90;99.90;;;;;;5000820;28;19942;-78
2024/02/17 05:09:47;;;;;;;;;;;1.90;99.90;;;;;;4985708;28;20023;-77
2024/02/17 05:12:17;;;;;;;16.85;10.02;;;1.80;99.90;;;;;;4998787;28;19906;-77
2024/02/17 05:14:43;;;;;;;17.17;9.70;;;1.90;99.90;;;;;;4986154;28;20131;-77
2024/02/17 05:17:09;;;;;;;;;;;1.80;99.90;;;;;;4981293;28;20032;-78
2024/02/17 05:19:35;;;;;;;17.23;9.85;;;2.00;99.90;;;;;;4996708;28;19941;-78
2024/02/17 05:22:01;;;;;;;19.63;10.88;;;2.10;99.90;;;;;;4981510;28;20023;-78
2024/02/17 05:24:29;;;;;;;18.48;10.65;;;2.10;99.90;;;;;;4982867;28;20050;-78
2024/02/17 05:26:55;;;;;;;19.05;10.88;;;2.10;99.90;;;;;;4985631;28;20058;-78
2024/02/17 05:29:21;;;;;;;;;;;2.30;99.90;;;;;;4985604;28;20031;-77
2024/02/17 05:31:46;;;;;;;21.80;11.23;;;2.20;99.90;;;;;;5000652;28;19910;-78
2024/02/17 05:34:17;;;;;;;;;;;2.20;99.90;;;;;;5005047;28;20049;-78
2024/02/17 05:36:43;;;;;;;28.00;14.35;;;2.20;99.90;;;;;;5007203;28;19913;-77
2024/02/17 05:39:09;;;;;;;;;;;2.20;99.90;;;;;;4990642;28;20027;-77
2024/02/17 05:41:35;;;;;;;38.33;21.73;;;2.20;99.90;;;;;;4989788;28;19952;-78
2024/02/17 05:44:00;;;;;;;;;;;2.10;99.90;;;;;;4991340;28;20396;-77
2024/02/17 05:46:26;;;;;;;39.08;22.00;;;2.10;99.90;;;;;;4990664;28;20306;-77
2024/02/17 05:48:51;;;;;;;;;;;2.20;99.90;;;;;;4991354;28;20059;-78
2024/02/17 05:51:17;;;;;;;31.15;15.98;;;2.10;99.90;;;;;;4991001;28;19906;-77
2024/02/17 05:53:43;;;;;;;;;;;2.10;99.90;;;;;;4990662;28;20062;-77
2024/02/17 05:56:09;;;;;;;26.33;15.95;;;2.00;99.90;;;;;;4991198;28;19913;-78
2024/02/17 05:58:38;;;;;;;31.85;17.38;;;2.10;99.90;;;;;;4984633;28;20077;-78
2024/02/17 06:01:04;;;;;;;32.08;18.52;;;2.10;99.90;;;;;;5009479;28;20034;-78
2024/02/17 06:03:32;;;;;;;;;;;2.10;99.90;;;;;;5014019;28;20056;-78
2024/02/17 06:05:58;;;;;;;59.15;31.27;;;2.00;99.90;;;;;;4992263;28;19917;-77
2024/02/17 06:08:24;;;;;;;43.70;23.67;;;2.10;99.90;;;;;;5010430;28;20053;-78
2024/02/17 06:10:51;;;;;;;;;;;2.10;99.90;;;;;;4993758;28;20022;-78
2024/02/17 06:13:17;;;;;;;34.65;20.73;;;2.10;99.90;;;;;;5013476;28;19909;-78
2024/02/17 06:15:43;;;;;;;;;;;1.60;99.90;;;;;;5016252;28;20042;-79
2024/02/17 06:21:13;;;;;;;26.02;16.20;;;2.60;99.90;;;;;;5005939;28;20600;-78
2024/02/17 06:23:41;;;;;;;25.92;14.98;;;2.10;99.90;;;;;;4984573;28;20483;-77
2024/02/17 06:26:17;;;;;;;27.30;16.75;;;2.10;99.90;;;;;;4985804;28;20030;-78
2024/02/17 06:28:43;;;;;;;37.88;22.45;;;2.20;99.90;;;;;;5002893;28;20082;-76
2024/02/17 06:31:08;;;;;;;;;;;2.20;99.90;;;;;;4986193;28;20073;-76
2024/02/17 06:33:34;;;;;;;37.67;19.50;;;2.20;99.90;;;;;;4983708;28;20008;-77
2024/02/17 06:36:01;;;;;;;;;;;2.30;99.90;;;;;;4985257;28;20094;-81
2024/02/17 06:38:26;;;;;;;32.88;16.35;;;2.30;99.90;;;;;;5001589;28;19932;-77
2024/02/17 06:40:52;;;;;;;25.35;15.13;;;2.40;99.90;;;;;;5000471;28;20550;-77
2024/02/17 06:43:18;;;;;;;;;;;2.60;99.90;;;;;;4984083;28;20065;-79
2024/02/17 06:45:44;;;;;;;24.30;12.57;;;2.90;99.90;;;;;;5000303;28;19909;-77
2024/02/17 06:48:09;;;;;;;;;;;3.20;99.90;;;;;;4981690;28;20030;-77
2024/02/17 06:50:35;;;;;;;22.85;12.95;;;3.60;99.90;;;;;;4998683;28;19916;-76
2024/02/17 06:53:00;;;;;;;;;;;4.30;99.90;;;;;;4998905;28;20106;-78
2024/02/17 06:55:26;;;;;;;21.48;12.10;;;4.90;99.90;;;;;;5001046;28;20009;-77
2024/02/17 06:57:51;;;;;;;;;;;5.70;99.90;;;;;;5000792;28;20039;-77
2024/02/17 07:00:18;;;;;;;21.27;12.60;;;6.50;99.90;;;;;;4988018;28;19914;-77
2024/02/17 07:02:44;;;;;;;22.58;11.60;;;7.10;99.90;;;;;;5003858;28;20037;-78
2024/02/17 07:05:13;;;;;;;;;;;7.80;99.90;;;;;;5004210;28;20032;-78
2024/02/17 07:07:39;;;;;;;20.55;12.77;;;8.60;99.90;;;;;;5012014;28;19910;-78
2024/02/17 07:10:05;;;;;;;;;;;9.00;99.90;;;;;;4993791;28;20049;-78
2024/02/17 07:12:31;;;;;;;19.27;11.60;;;9.40;99.90;;;;;;4983953;28;19933;-77
2024/02/17 07:14:57;;;;;;;15.85;10.60;;;9.90;99.90;;;;;;4983986;28;20058;-77
2024/02/17 07:17:23;;;;;;;;;;;10.40;98.50;;;;;;4984911;28;20110;-78
2024/02/17 07:19:48;;;;;;;21.70;11.85;;;10.70;94.10;;;;;;5002193;28;19930;-77
2024/02/17 07:22:14;;;;;;;20.02;11.88;;;10.90;92.50;;;;;;5001586;28;20033;-78
2024/02/17 07:24:42;;;;;;;20.30;11.98;;;11.20;92.10;;;;;;5001808;28;20033;-77
2024/02/17 07:27:08;;;;;;;18.23;11.13;;;11.30;90.70;;;;;;4983784;28;20030;-77
2024/02/17 07:29:37;;;;;;;22.13;13.50;;;11.60;89.60;;;;;;5003924;28;20134;-79
2024/02/17 07:32:05;;;;;;;22.05;14.02;;;11.90;86.20;;;;;;5005365;28;20045;-78
2024/02/17 07:34:31;;;;;;;27.88;16.85;;;12.10;82.80;;;;;;5003109;28;20086;-77
2024/02/17 07:36:58;;;;;;;21.38;14.70;;;12.40;80.80;;;;;;4985515;28;20053;-77
2024/02/17 07:39:24;;;;;;;22.70;15.13;;;12.60;76.60;;;;;;4986315;28;20029;-77
2024/02/17 07:41:51;;;;;;;24.45;14.57;;;12.90;75.50;;;;;;4985355;28;20027;-78
2024/02/17 07:44:19;;;;;;;21.90;14.13;;;13.30;72.40;;;;;;4986769;28;20030;-78
2024/02/17 07:46:45;;;;;;;23.73;14.35;;;13.50;68.60;;;;;;5000288;28;20052;-78
2024/02/17 07:49:11;;;;;;;21.50;14.05;;;13.80;65.10;;;;;;5002650;28;20053;-77
2024/02/17 07:51:38;;;;;;;23.00;14.45;;;13.90;64.50;;;;;;4999277;28;20034;-78
2024/02/17 07:54:05;;;;;;;22.13;15.18;;;13.90;61.60;;;;;;4999670;28;20033;-77
2024/02/17 07:56:31;;;;;;;25.70;16.00;;;14.10;59.50;;;;;;5001473;28;20474;-77
2024/02/17 07:58:56;;;;;;;22.55;14.35;;;14.40;58.40;;;;;;4999230;28;20526;-78
2024/02/17 08:01:22;;;;;;;21.33;14.55;;;14.60;56.30;;;;;;5000268;28;20101;-78
2024/02/17 08:03:48;;;;;;;20.15;13.13;;;14.60;55.00;;;;;;5000714;28;20026;-78
2024/02/17 08:06:19;;;;;;;;;;;14.50;55.70;;;;;;5002407;28;20026;-77
2024/02/17 08:08:45;;;;;;;19.58;11.88;;;14.30;57.00;;;;;;4996410;28;19913;-81
2024/02/17 08:11:11;;;;;;;18.15;12.07;;;14.30;56.60;;;;;;4992186;28;20549;-80
2024/02/17 08:13:38;;;;;;;21.75;13.60;;;14.50;54.80;;;;;;4991863;28;20038;-80
2024/02/17 08:16:04;;;;;;;22.77;16.98;;;14.80;53.70;;;;;;4992408;28;20042;-79
2024/02/17 08:18:30;;;;;;;23.92;17.08;;;14.90;53.20;;;;;;4992586;28;20083;-84
2024/02/17 08:20:58;;;;;;;21.08;13.98;;;14.80;52.30;;;;;;4988467;28;20435;-84
2024/02/17 08:23:28;;;;;;;25.35;16.98;;;15.00;52.80;;;;;;4989429;28;20064;-84
2024/02/17 08:25:58;;;;;;;28.08;15.95;;;15.20;50.60;;;;;;4971990;28;20041;-82
2024/02/17 08:28:23;;;;;;;25.77;16.77;;;15.20;48.80;;;;;;4989248;28;20026;-84
2024/02/17 08:30:49;;;;;;;28.10;17.42;;;15.30;49.70;;;;;;4971696;28;20037;-84
2024/02/17 08:33:16;;;;;;;29.17;16.65;;;15.50;48.30;;;;;;4987990;28;20056;-85
2024/02/17 08:35:42;;;;;;;29.73;18.08;;;15.70;47.30;;;;;;4971795;28;20511;-84
2024/02/17 08:38:08;;;;;;;29.33;19.15;;;15.80;46.90;;;;;;4972239;28;20030;-84
2024/02/17 08:40:34;;;;;;;22.98;16.50;;;16.00;45.40;;;;;;4988191;28;20030;-84
2024/02/17 08:43:01;;;;;;;28.02;17.30;;;16.10;45.90;;;;;;4971731;28;20034;-83
2024/02/17 08:45:27;;;;;;;22.15;16.58;;;16.30;45.50;;;;;;4989144;28;20080;-85
2024/02/17 08:47:53;;;;;;;24.83;16.92;;;16.40;44.60;;;;;;4971822;28;20121;-84
2024/02/17 08:50:20;;;;;;;28.27;18.85;;;16.60;42.90;;;;;;4989182;28;20479;-83
2024/02/17 08:52:46;;;;;;;25.48;18.30;;;16.70;41.80;;;;;;4989297;28;20376;-83
2024/02/17 08:55:12;;;;;;;20.85;16.38;;;16.90;41.20;;;;;;4971771;28;20124;-83
2024/02/17 08:57:38;;;;;;;29.25;16.27;;;17.30;41.10;;;;;;4971572;28;20097;-83
2024/02/17 09:00:05;;;;;;;27.92;17.55;;;17.40;38.60;;;;;;4971506;28;20034;-82
2024/02/17 09:02:31;;;;;;;28.15;16.33;;;17.50;39.30;;;;;;4971503;28;20019;-83
2024/02/17 09:04:58;;;;;;;21.17;14.32;;;17.70;38.60;;;;;;4987876;28;20578;-81
2024/02/17 09:07:24;;;;;;;21.85;16.30;;;17.70;36.10;;;;;;4987508;28;20541;-83
2024/02/17 09:09:53;;;;;;;24.75;15.43;;;17.70;36.30;;;;;;4974020;28;20034;-80
2024/02/17 09:12:21;;;;;;;17.52;13.73;;;18.00;35.70;;;;;;4992828;28;20491;-82
2024/02/17 09:14:47;;;;;;;21.58;12.57;;;18.10;34.50;;;;;;4992508;28;20034;-83
2024/02/17 09:17:14;;;;;;;21.75;10.27;;;18.30;34.00;;;;;;4974880;28;20041;-79
2024/02/17 09:19:40;;;;;;;18.05;9.20;;;18.50;33.70;;;;;;4975181;28;20062;-82
2024/02/17 09:22:05;;;;;;;13.80;8.70;;;18.80;30.50;;;;;;4992619;28;20530;-82
2024/02/17 09:24:31;;;;;;;12.85;8.88;;;18.70;29.40;;;;;;4975070;28;20026;-81
2024/02/17 09:27:00;;;;;;;14.35;8.27;;;18.80;29.10;;;;;;4974914;28;20448;-78
2024/02/17 09:29:30;;;;;;;19.30;9.13;;;18.70;29.40;;;;;;4974760;28;20100;-80
2024/02/17 09:31:55;;;;;;;10.20;7.53;;;19.00;27.70;;;;;;4990981;28;20044;-80
2024/02/17 09:34:22;;;;;;;15.38;8.32;;;18.90;28.40;;;;;;4975013;28;20128;-81
2024/02/17 09:36:48;;;;;;;10.93;7.22;;;18.90;28.40;;;;;;4975052;28;20038;-80
2024/02/17 09:39:16;;;;;;;13.35;7.60;;;19.10;28.30;;;;;;4992355;28;20076;-82
2024/02/17 09:41:42;;;;;;;11.23;7.18;;;19.30;28.10;;;;;;4990732;28;20058;-82
2024/02/17 09:44:10;;;;;;;17.55;8.32;;;19.60;27.70;;;;;;4974619;28;20052;-82
2024/02/17 09:46:36;;;;;;;10.98;7.60;;;19.80;26.90;;;;;;4974610;28;20034;-81
2024/02/17 09:49:03;;;;;;;11.38;6.70;;;19.80;26.70;;;;;;4974385;28;20499;-81
2024/02/17 09:51:30;;;;;;;11.00;7.05;;;20.00;26.50;;;;;;4973925;28;20037;-81
2024/02/17 09:53:57;;;;;;;15.48;6.95;;;20.10;26.00;;;;;;4974272;28;20034;-82
2024/02/17 09:56:24;;;;;;;12.60;6.22;;;20.00;26.20;;;;;;4990576;28;20034;-82
2024/02/17 09:58:50;;;;;;;9.77;5.93;;;19.80;25.30;;;;;;4991801;28;20633;-84
2024/02/17 10:01:16;;;;;;;9.07;6.20;;;19.40;25.10;;;;;;4974035;28;20117;-82
2024/02/17 10:03:41;;;;;;;9.75;6.60;;;19.00;25.90;;;;;;4991524;28;20057;-84
2024/02/17 10:06:14;;;;;;;13.45;6.35;;;18.40;26.40;;;;;;4991243;28;20056;-78
2024/02/17 10:08:41;;;;;;;10.43;5.20;;;18.00;27.30;;;;;;4991760;28;20041;-84
2024/02/17 10:11:10;;;;;;;10.15;6.97;;;17.60;27.70;;;;;;4974170;28;20029;-85
2024/02/17 10:13:37;;;;;;;10.32;6.60;;;17.00;28.60;;;;;;4991667;28;20146;-85
2024/02/17 10:16:14;;;;;;;10.02;6.30;;;16.60;29.50;;;;;;4974110;28;20502;-83
2024/02/17 10:18:45;;;;;;;14.27;6.45;;;16.20;30.10;;;;;;4992018;28;20034;-83
2024/02/17 10:21:12;;;;;;;12.80;6.35;;;15.90;31.90;;;;;;4992664;28;20223;-85
2024/02/17 10:23:38;;;;;;;11.15;6.63;;;15.80;32.30;;;;;;4993957;28;20743;-84
2024/02/17 10:26:06;;;;;;;12.45;6.65;;;15.80;32.60;;;;;;4976282;28;20042;-83
2024/02/17 10:28:31;;;;;;;15.07;7.45;;;15.80;32.50;;;;;;4975229;28;20022;-80
2024/02/17 10:30:57;;;;;;;12.77;7.55;;;15.90;31.80;;;;;;4993976;28;20070;-82
2024/02/17 10:33:26;;;;;;;13.00;7.40;;;15.90;31.90;;;;;;4975025;28;20027;-84
2024/02/17 10:35:53;;;;;;;13.15;6.75;;;15.80;33.00;;;;;;4975157;28;20050;-81
2024/02/17 10:38:19;;;;;;;17.63;8.73;;;15.80;32.20;;;;;;4975522;28;20029;-81
2024/02/17 10:40:45;;;;;;;13.25;8.55;;;15.70;33.20;;;;;;4994813;28;20038;-79
2024/02/17 10:43:11;;;;;;;29.05;18.15;;;15.70;32.90;;;;;;4999829;28;20061;-79
2024/02/17 10:45:36;;;;;;;13.48;9.20;;;15.60;32.90;;;;;;4990712;28;20026;-79
2024/02/17 10:48:10;;;;;;;21.88;7.82;;;15.60;33.90;;;;;;4987028;28;20031;-78
2024/02/17 10:50:41;;;;;;;12.90;6.82;;;15.40;34.30;;;;;;4986694;28;20022;-78
2024/02/17 10:53:22;;;;;;;17.40;8.18;;;15.50;33.90;;;;;;5005811;28;20501;-78
2024/02/17 10:55:53;;;;;;;15.45;7.45;;;15.40;34.50;;;;;;5006210;28;20046;-79
2024/02/17 10:58:21;;;;;;;12.30;7.85;;;15.30;34.60;;;;;;4986788;28;20093;-76
2024/02/17 11:00:48;;;;;;;14.43;9.93;;;15.30;34.70;;;;;;5006218;28;20026;-79
2024/02/17 11:03:31;;;;;;;18.20;8.52;;;15.20;35.30;;;;;;4986666;28;20053;-79
2024/02/17 11:06:03;;;;;;;12.98;8.35;;;15.20;35.70;;;;;;5004600;28;20038;-79
2024/02/17 11:08:30;;;;;;;12.65;8.02;;;15.20;36.30;;;;;;4991994;28;20054;-79
2024/02/17 11:10:55;;;;;;;15.70;8.70;;;15.20;36.30;;;;;;4989345;28;20023;-78
2024/02/17 11:13:29;;;;;;;15.40;9.90;;;15.20;36.40;;;;;;4992963;28;20062;-79
2024/02/17 11:16:00;;;;;;;13.45;9.10;;;15.20;36.40;;;;;;4992422;28;20132;-78
2024/02/17 11:18:26;;;;;;;14.82;9.27;;;15.20;37.00;;;;;;5009229;28;20037;-79
2024/02/17 11:20:52;;;;;;;16.90;8.90;;;15.20;36.80;;;;;;4992336;28;20022;-79
2024/02/17 11:23:18;;;;;;;16.17;8.90;;;15.10;37.10;;;;;;5005004;28;20034;-79
2024/02/17 11:25:44;;;;;;;20.92;10.60;;;15.10;37.70;;;;;;4992997;28;20026;-79
2024/02/17 11:28:21;;;;;;;15.30;11.32;;;15.10;36.90;;;;;;5007188;28;20034;-78
2024/02/17 11:30:51;;;;;;;12.70;8.43;;;15.00;37.70;;;;;;4992224;28;20030;-79
2024/02/17 11:33:26;;;;;;;17.40;9.98;;;14.90;37.80;;;;;;5008816;28;20023;-79
2024/02/17 11:35:52;;;;;;;16.92;9.43;;;14.80;38.40;;;;;;5008513;28;20046;-80
2024/02/17 11:38:24;;;;;;;15.38;9.15;;;14.70;39.50;;;;;;5006105;28;20450;-79
2024/02/17 11:40:52;;;;;;;15.00;8.88;;;14.70;39.90;;;;;;5007891;28;20026;-79
2024/02/17 11:43:20;;;;;;;17.55;11.45;;;14.70;40.20;;;;;;5009228;28;20053;-79
2024/02/17 11:45:46;;;;;;;25.50;17.13;;;14.50;40.90;;;;;;4991787;28;20093;-79
2024/02/17 11:48:13;;;;;;;16.70;10.93;;;14.40;42.30;;;;;;5008953;28;20034;-76
2024/02/17 11:50:39;;;;;;;14.80;9.48;;;14.40;42.30;;;;;;4991463;28;20026;-77
2024/02/17 11:53:05;;;;;;;17.23;10.43;;;14.40;42.70;;;;;;5004435;28;20406;-77
2024/02/17 11:55:31;;;;;;;14.40;8.68;;;14.40;41.30;;;;;;5002819;28;20061;-77
2024/02/17 11:57:57;;;;;;;12.43;8.00;;;14.50;40.70;;;;;;5007433;28;20459;-77
2024/02/17 12:00:24;;;;;;;12.02;7.78;;;14.50;39.70;;;;;;5009120;28;20026;-78
2024/02/17 12:02:50;;;;;;;14.00;7.25;;;14.50;39.30;;;;;;5008390;28;20534;-77
2024/02/17 12:05:16;;;;;;;11.80;6.63;;;14.60;38.70;;;;;;5006402;28;20086;-77
2024/02/17 12:07:42;;;;;;;13.50;7.07;;;14.60;38.20;;;;;;4991027;28;20478;-78
2024/02/17 12:10:08;;;;;;;11.63;6.72;;;14.50;38.50;;;;;;4990823;28;20046;-78
2024/02/17 12:12:39;;;;;;;11.40;7.25;;;14.60;37.90;;;;;;4992074;28;20038;-77
2024/02/17 12:15:13;;;;;;;14.80;7.72;;;14.60;38.70;;;;;;5007615;28;20050;-78
2024/02/17 12:17:43;;;;;;;12.90;7.18;;;14.60;38.90;;;;;;4989899;28;20022;-78
2024/02/17 12:20:16;;;;;;;33.08;25.88;;;14.60;38.80;;;;;;4984679;28;20034;-78
2024/02/17 12:22:45;;;;;;;18.63;12.15;;;14.60;38.50;;;;;;4983227;28;20061;-77
2024/02/17 12:25:14;;;;;;;14.23;8.20;;;14.60;38.30;;;;;;4985051;28;20026;-77
2024/02/17 12:27:41;;;;;;;13.88;8.07;;;14.70;37.90;;;;;;4985592;28;20034;-78
2024/02/17 12:30:08;;;;;;;12.70;7.82;;;14.70;38.20;;;;;;4985836;28;20049;-77
2024/02/17 12:32:33;;;;;;;16.35;8.32;;;14.50;39.00;;;;;;4984462;28;20037;-77
2024/02/17 12:35:17;;;;;;;13.73;8.45;;;14.40;39.20;;;;;;4985808;28;20043;-78
2024/02/17 12:37:47;;;;;;;18.98;8.98;;;14.40;38.90;;;;;;4988221;28;20041;-76
2024/02/17 12:40:14;;;;;;;16.58;9.07;;;14.40;37.90;;;;;;4991147;28;20045;-77
2024/02/17 12:42:40;;;;;;;15.40;9.35;;;14.30;37.40;;;;;;5003811;28;20089;-76
2024/02/17 12:45:06;;;;;;;17.25;9.50;;;14.30;36.80;;;;;;5014997;28;20027;-77
2024/02/17 12:47:31;;;;;;;15.20;8.80;;;14.30;37.30;;;;;;5002029;28;20022;-78
2024/02/17 12:49:57;;;;;;;;;;;14.30;38.10;;;;;;5002297;28;20093;-78
2024/02/17 12:52:27;;;;;;;15.32;9.32;;;14.40;38.00;;;;;;5002061;28;19913;-77
2024/02/17 12:54:55;;;;;;;16.77;10.05;;;14.40;38.10;;;;;;4999366;28;20098;-77
2024/02/17 12:57:28;;;;;;;35.00;27.85;;;14.40;38.90;;;;;;5003498;28;20087;-78
2024/02/17 12:59:54;;;;;;;26.65;16.20;;;14.50;38.30;;;;;;5010526;28;20049;-77